Mgła Początek: 25-10-2020 22:00 Koniec: 26-10-2020 09:00 Ostrzeżenie dla: Mgła Poziom: Żółty
Pogoda potencjalnie niebezpieczna.
info button

Raporty Pogodowe z Lotnisk

 

EPKK - Krakow/Balice, Poland
Odległość od stacji: Zd 81km
Aktualizacja: 26/10/2020 05:30
Mgła, Pochmurnie
Mgła, Pochmurnie
 Wiatr z PnWs
Wiatr: PnWs 9 km/h
Temperatura: 9°C
Temperatura Odczuwalna: 7°C
Punkt Rosy: 8°C
Wilgotność Względna: 94%
Ciśnienie Względne: 1009 hPa
Podsumowanie: Mgła
Chmury: Pochmurnie
Widoczność: 0 km
Szczegóły chmur: Pochmurnie 30 m
2020/10/26 04:30 EPKK 260430Z 05005KT 0100 R25/0450N FG VV001 09/08 Q1009
EPRZ - Rzeszow/Jasionka, Poland
Odległość od stacji: Ws 81km
Aktualizacja: 26/10/2020 05:30
Małe zachmurzenie
Małe zachmurzenie
 Wiatr z Ws
Wiatr: Ws 9 km/h
Temperatura: 10°C
Temperatura Odczuwalna: 9°C
Punkt Rosy: 10°C
Wilgotność Względna: 100%
Ciśnienie Względne: 1011 hPa
Chmury: Małe zachmurzenie
Widoczność: 8 km
Szczegóły chmur: Małe zachmurzenie 945 m
2020/10/26 04:30 EPRZ 260430Z 10005KT 8000 FEW031 10/10 Q1011
 
EPKT - Katowice/Pyrzowice, Poland
Odległość od stacji: ZdPnZd 141km
Aktualizacja: 26/10/2020 05:30
Mgła, Pochmurnie
Mgła, Pochmurnie
 Wiatr z PdWs
Wiatr: PdWs 11 km/h
Temperatura: 8°C
Temperatura Odczuwalna: 6°C
Punkt Rosy: 8°C
Wilgotność Względna: 100%
Ciśnienie Względne: 1009 hPa
Podsumowanie: Mgła
Chmury: Pochmurnie
Widoczność: 0 km
Szczegóły chmur: Pochmurnie 30 m
2020/10/26 04:30 EPKT 260430Z 14006KT 0200 R27/0700N FG VV001 08/08 Q1009
EPWA - Warsaw/Okecie, Poland
Odległość od stacji: Pn 240km
Aktualizacja: 26/10/2020 05:30
Przeważnie pochmurno
Przeważnie pochmurno
 Wiatr z PdWs
Wiatr: PdWs 13 km/h
Temperatura: 12°C
Punkt Rosy: 11°C
Wilgotność Względna: 94%
Ciśnienie Względne: 1009 hPa
Chmury: Przeważnie pochmurno
Widoczność: 9 km
Szczegóły chmur: Częściowe zachmurzenie 213 m
Przeważnie pochmurno 610 m
2020/10/26 04:30 EPWA 260430Z 14007KT 9000 SCT007 BKN020 12/11 Q1009 TEMPO BKN007
 
EPLL - Lodz/Lublinek, Poland
Odległość od stacji: PnPnZd 218km
Aktualizacja: 26/10/2020 05:30
Małe zachmurzenie
Małe zachmurzenie
 Wiatr z WsPdWs
Wiatr: WsPdWs 7 km/h
Temperatura: 9°C
Temperatura Odczuwalna: 8°C
Punkt Rosy: 8°C
Wilgotność Względna: 94%
Ciśnienie Względne: 1008 hPa
Chmury: Małe zachmurzenie
Widoczność: 6 km
Szczegóły chmur: Małe zachmurzenie 274 m
2020/10/26 04:30 EPLL 260430Z 12004KT 070V160 6000 FEW009 09/08 Q1008
EPWR - Wroclaw/Strachowice, Poland
Odległość od stacji: ZdPnZd 311km
Aktualizacja: 26/10/2020 05:30
Mgła, Częściowe zachmurzenie
Mgła, Częściowe zachmurzenie
 Wiatr z PdWs
Wiatr: PdWs 2 km/h
Temperatura: 4°C
Punkt Rosy: 4°C
Wilgotność Względna: 100%
Ciśnienie Względne: 1007 hPa
Podsumowanie: Mgła
Chmury: Częściowe zachmurzenie
Widoczność: 0 km
2020/10/26 04:30 EPWR 260430Z 13001KT 0200 R29/0400N FG NSC 04/04 Q1007
 
EPGD - Gdansk/Rebiechowo, Poland
Odległość od stacji: PnZd 553km
Aktualizacja: 26/10/2020 05:30
Przeważnie pochmurno
Przeważnie pochmurno
 Wiatr z Pd
Wiatr: Pd 22 km/h
Temperatura: 10°C
Temperatura Odczuwalna: 7°C
Punkt Rosy: 8°C
Wilgotność Względna: 88%
Ciśnienie Względne: 1006 hPa
Chmury: Przeważnie pochmurno
Widoczność: 8 km
Szczegóły chmur: Przeważnie pochmurno 213 m
2020/10/26 04:30 EPGD 260430Z 17012KT 8000 BKN007 10/08 Q1006
EPSC - Szczecin/Goleniow, Poland
Odległość od stacji: ZdPnZd 635km
Aktualizacja: 26/10/2020 05:30
Częściowe zachmurzenie
Częściowe zachmurzenie
 Wiatr z PdWs
Wiatr: PdWs 13 km/h
Temperatura: 9°C
Temperatura Odczuwalna: 7°C
Punkt Rosy: 8°C
Wilgotność Względna: 94%
Ciśnienie Względne: 1004 hPa
Chmury: Częściowe zachmurzenie
Widoczność: 9 km
2020/10/26 04:30 EPSC 260430Z 14007KT 9000 NSC 09/08 Q1004